createdAt,value
2017-09-09T00:00:11.649Z,0
2017-09-09T00:01:13.075Z,0
2017-09-09T00:02:14.494Z,0
2017-09-09T00:03:15.909Z,0
2017-09-09T00:04:17.328Z,0
2017-09-09T00:05:18.749Z,0
2017-09-09T00:06:20.168Z,0
2017-09-09T00:07:21.587Z,0
2017-09-09T00:08:23.005Z,0
2017-09-09T00:09:24.430Z,0
2017-09-09T00:10:25.842Z,0
2017-09-09T00:11:27.267Z,0
2017-09-09T00:12:28.684Z,0
2017-09-09T00:13:30.094Z,0
2017-09-09T00:14:31.509Z,0
2017-09-09T00:15:32.923Z,0
2017-09-09T00:16:34.336Z,0
2017-09-09T00:17:35.755Z,0
2017-09-09T00:18:37.173Z,0
2017-09-09T00:19:38.588Z,0
2017-09-09T00:20:40.017Z,0
2017-09-09T00:21:41.438Z,0
2017-09-09T00:22:42.857Z,0
2017-09-09T00:23:44.278Z,0
2017-09-09T00:24:45.694Z,0
2017-09-09T00:25:47.122Z,0
2017-09-09T00:26:48.537Z,0
2017-09-09T00:27:49.955Z,0
2017-09-09T00:28:51.377Z,0
2017-09-09T00:29:52.790Z,0
2017-09-09T00:30:54.208Z,0
2017-09-09T00:31:55.624Z,0
2017-09-09T00:32:57.049Z,0
2017-09-09T00:33:58.472Z,0
2017-09-09T00:34:59.892Z,0
2017-09-09T00:36:01.314Z,0
2017-09-09T00:37:02.734Z,0
2017-09-09T00:38:04.164Z,0
2017-09-09T00:39:05.580Z,0
2017-09-09T00:40:06.999Z,0
2017-09-09T00:41:08.422Z,0
2017-09-09T00:42:09.897Z,0
2017-09-09T00:43:11.321Z,0
2017-09-09T00:44:12.742Z,0
2017-09-09T00:45:14.164Z,0
2017-09-09T00:46:15.639Z,0
2017-09-09T00:47:17.057Z,0
2017-09-09T00:48:18.481Z,0
2017-09-09T00:49:19.901Z,0
2017-09-09T00:50:21.322Z,0
2017-09-09T00:51:22.748Z,0
2017-09-09T00:52:24.235Z,0
2017-09-09T00:53:25.700Z,0
2017-09-09T00:54:27.093Z,0
2017-09-09T00:55:28.513Z,0
2017-09-09T00:56:29.938Z,0
2017-09-09T00:57:31.362Z,0
2017-09-09T00:58:32.832Z,0
2017-09-09T00:59:34.308Z,0
2017-09-09T01:00:35.792Z,0
2017-09-09T01:01:37.217Z,0
2017-09-09T01:02:38.643Z,0
2017-09-09T01:03:40.076Z,0
2017-09-09T01:04:41.508Z,0
2017-09-09T01:05:42.930Z,0
2017-09-09T01:06:44.350Z,0
2017-09-09T01:07:45.762Z,0
2017-09-09T01:08:47.174Z,0
2017-09-09T01:09:48.608Z,0
2017-09-09T01:10:50.023Z,0
2017-09-09T01:11:51.450Z,0
2017-09-09T01:12:52.863Z,0
2017-09-09T01:13:54.282Z,0
2017-09-09T01:14:55.696Z,0
2017-09-09T01:15:57.111Z,0
2017-09-09T01:16:58.530Z,0
2017-09-09T01:17:59.946Z,0
2017-09-09T01:19:01.366Z,0
2017-09-09T01:20:02.785Z,0
2017-09-09T01:21:04.219Z,0
2017-09-09T01:22:05.639Z,0
2017-09-09T01:23:07.063Z,0
2017-09-09T01:24:08.478Z,0
2017-09-09T01:25:09.904Z,0
2017-09-09T01:26:11.317Z,0
2017-09-09T01:27:12.737Z,0
2017-09-09T01:28:14.163Z,0
2017-09-09T01:29:15.566Z,0
2017-09-09T01:30:16.986Z,0
2017-09-09T01:31:18.403Z,0
2017-09-09T01:32:19.817Z,0
2017-09-09T01:33:21.242Z,0
2017-09-09T01:34:22.665Z,0
2017-09-09T01:35:24.085Z,0
2017-09-09T01:36:25.514Z,0
2017-09-09T01:37:26.932Z,0
2017-09-09T01:38:28.355Z,0
2017-09-09T01:39:29.774Z,0
2017-09-09T01:40:31.201Z,0
2017-09-09T01:41:32.620Z,0
2017-09-09T01:42:34.096Z,0
2017-09-09T01:43:35.522Z,0
2017-09-09T01:44:36.938Z,0
2017-09-09T01:45:38.358Z,0
2017-09-09T01:46:39.792Z,0
2017-09-09T01:47:41.214Z,0
2017-09-09T01:48:42.638Z,0
2017-09-09T01:49:44.050Z,0
2017-09-09T01:50:45.473Z,0
2017-09-09T01:51:46.899Z,0
2017-09-09T01:52:48.316Z,0
2017-09-09T01:53:49.740Z,0
2017-09-09T01:54:51.155Z,0
2017-09-09T01:55:52.570Z,0
2017-09-09T01:56:53.982Z,0
2017-09-09T01:57:55.405Z,0
2017-09-09T01:58:56.823Z,0
2017-09-09T01:59:58.238Z,0
2017-09-09T02:00:59.654Z,0
2017-09-09T02:02:01.085Z,0
2017-09-09T02:03:02.498Z,0
2017-09-09T02:04:03.923Z,0
2017-09-09T02:05:05.338Z,0
2017-09-09T02:06:06.752Z,0
2017-09-09T02:07:08.171Z,0
2017-09-09T02:08:09.586Z,0
2017-09-09T02:09:11.015Z,0
2017-09-09T02:10:12.425Z,0
2017-09-09T02:11:13.843Z,0
2017-09-09T02:12:15.266Z,0
2017-09-09T02:13:16.682Z,0
2017-09-09T02:14:18.110Z,0
2017-09-09T02:15:19.526Z,0
2017-09-09T02:16:20.949Z,0
2017-09-09T02:17:22.358Z,0
2017-09-09T02:18:23.779Z,0
2017-09-09T02:19:25.209Z,0
2017-09-09T02:20:26.620Z,0
2017-09-09T02:21:28.054Z,0
2017-09-09T02:22:29.471Z,0
2017-09-09T02:23:30.891Z,0
2017-09-09T02:24:32.319Z,0
2017-09-09T02:25:33.735Z,0
2017-09-09T02:26:35.149Z,0
2017-09-09T02:27:36.569Z,0
2017-09-09T02:28:38.087Z,0
2017-09-09T02:29:39.549Z,0
2017-09-09T02:30:40.966Z,0
2017-09-09T02:31:42.386Z,0
2017-09-09T02:32:43.812Z,0
2017-09-09T02:33:45.230Z,0
2017-09-09T02:34:46.650Z,0
2017-09-09T02:35:48.070Z,0
2017-09-09T02:36:49.485Z,0
2017-09-09T02:37:50.931Z,0
2017-09-09T02:38:52.349Z,0
2017-09-09T02:39:53.764Z,0
2017-09-09T02:40:55.190Z,0
2017-09-09T02:41:56.616Z,0
2017-09-09T02:42:58.036Z,0
2017-09-09T02:43:59.455Z,0
2017-09-09T02:45:00.869Z,0
2017-09-09T02:46:02.284Z,0
2017-09-09T02:47:03.696Z,0
2017-09-09T02:48:05.109Z,0
2017-09-09T02:49:06.524Z,0
2017-09-09T02:50:07.935Z,0
2017-09-09T02:51:09.359Z,0
2017-09-09T02:52:10.785Z,0
2017-09-09T02:53:12.203Z,0
2017-09-09T02:54:13.655Z,0
2017-09-09T02:55:15.077Z,0
2017-09-09T02:56:16.496Z,0
2017-09-09T02:57:17.915Z,0
2017-09-09T02:58:19.331Z,0
2017-09-09T02:59:20.744Z,0
2017-09-09T03:00:22.164Z,0
2017-09-09T03:01:23.606Z,0
2017-09-09T03:02:25.035Z,0
2017-09-09T03:03:26.443Z,0
2017-09-09T03:04:27.855Z,0
2017-09-09T03:05:29.279Z,0
2017-09-09T03:06:30.693Z,0
2017-09-09T03:07:32.117Z,0
2017-09-09T03:08:33.546Z,0
2017-09-09T03:09:34.967Z,0
2017-09-09T03:10:36.382Z,0
2017-09-09T03:11:37.820Z,0
2017-09-09T03:12:39.245Z,0
2017-09-09T03:13:40.659Z,0
2017-09-09T03:14:42.078Z,0
2017-09-09T03:15:43.510Z,0
2017-09-09T03:16:44.928Z,0
2017-09-09T03:17:46.350Z,0
2017-09-09T03:18:47.850Z,0
2017-09-09T03:19:49.271Z,0
2017-09-09T03:20:50.697Z,0
2017-09-09T03:21:52.177Z,0
2017-09-09T03:22:53.707Z,0
2017-09-09T03:23:55.135Z,0
2017-09-09T03:24:56.558Z,0
2017-09-09T03:25:57.982Z,0
2017-09-09T03:26:59.402Z,0
2017-09-09T03:28:00.822Z,0
2017-09-09T03:29:02.246Z,0
2017-09-09T03:30:03.666Z,0
2017-09-09T03:31:05.082Z,0
2017-09-09T03:32:06.503Z,0
2017-09-09T03:33:07.918Z,0
2017-09-09T03:34:09.340Z,0
2017-09-09T03:35:10.760Z,0
2017-09-09T03:36:12.178Z,0
2017-09-09T03:37:13.594Z,0
2017-09-09T03:38:15.011Z,0
2017-09-09T03:39:16.424Z,0
2017-09-09T03:40:17.839Z,0
2017-09-09T03:41:19.263Z,0
2017-09-09T03:42:20.679Z,0
2017-09-09T03:43:22.094Z,0
2017-09-09T03:44:23.507Z,0
2017-09-09T03:45:24.928Z,0
2017-09-09T03:46:26.336Z,0
2017-09-09T03:47:27.755Z,0
2017-09-09T03:48:29.175Z,0
2017-09-09T03:49:30.588Z,0
2017-09-09T03:50:32.006Z,0
2017-09-09T03:51:33.428Z,0
2017-09-09T03:52:34.851Z,0
2017-09-09T03:53:36.263Z,0
2017-09-09T03:54:37.681Z,0
2017-09-09T03:55:39.101Z,0
2017-09-09T03:56:40.516Z,0
2017-09-09T03:57:41.941Z,0
2017-09-09T03:58:43.357Z,0
2017-09-09T03:59:44.786Z,0
2017-09-09T04:00:46.207Z,0
2017-09-09T04:01:47.629Z,0
2017-09-09T04:02:49.043Z,0
2017-09-09T04:03:50.459Z,0
2017-09-09T04:04:51.877Z,0
2017-09-09T04:05:53.288Z,0
2017-09-09T04:06:54.705Z,0
2017-09-09T04:07:56.220Z,0
2017-09-09T04:08:57.680Z,0
2017-09-09T04:09:59.095Z,0
2017-09-09T04:11:00.507Z,0
2017-09-09T04:12:01.927Z,0
2017-09-09T04:13:03.344Z,0
2017-09-09T04:14:04.761Z,0
2017-09-09T04:15:06.181Z,0
2017-09-09T04:16:07.597Z,0
2017-09-09T04:17:09.017Z,0
2017-09-09T04:18:10.446Z,0
2017-09-09T04:19:11.868Z,0
2017-09-09T04:20:13.280Z,0
2017-09-09T04:21:14.693Z,0
2017-09-09T04:22:16.111Z,0
2017-09-09T04:23:17.538Z,0
2017-09-09T04:24:18.960Z,0
2017-09-09T04:25:20.379Z,0
2017-09-09T04:26:21.791Z,0
2017-09-09T04:27:23.210Z,0
2017-09-09T04:28:24.633Z,0
2017-09-09T04:29:26.051Z,0
2017-09-09T04:30:27.463Z,0
2017-09-09T04:31:28.880Z,0
2017-09-09T04:32:30.293Z,0
2017-09-09T04:33:31.705Z,0
2017-09-09T04:34:33.118Z,0
2017-09-09T04:35:34.541Z,0
2017-09-09T04:36:35.962Z,0
2017-09-09T04:37:37.379Z,0
2017-09-09T04:38:38.798Z,0
2017-09-09T04:39:40.219Z,0
2017-09-09T04:40:41.636Z,0
2017-09-09T04:41:43.059Z,0
2017-09-09T04:42:44.467Z,0
2017-09-09T04:43:45.889Z,0
2017-09-09T04:44:47.307Z,0
2017-09-09T04:45:48.725Z,0
2017-09-09T04:46:50.165Z,0
2017-09-09T04:47:51.595Z,0
2017-09-09T04:48:53.007Z,0
2017-09-09T04:49:54.429Z,0
2017-09-09T04:50:55.846Z,0
2017-09-09T04:51:57.267Z,0
2017-09-09T04:52:58.694Z,0
2017-09-09T04:54:00.117Z,0
2017-09-09T04:55:01.537Z,0
2017-09-09T04:56:02.956Z,0
2017-09-09T04:57:04.372Z,0
2017-09-09T04:58:05.790Z,0
2017-09-09T04:59:07.208Z,0
2017-09-09T05:00:08.628Z,0
2017-09-09T05:01:10.050Z,0
2017-09-09T05:02:11.469Z,0
2017-09-09T05:03:12.892Z,0
2017-09-09T05:04:14.308Z,0
2017-09-09T05:05:15.728Z,0
2017-09-09T05:06:17.148Z,0
2017-09-09T05:07:18.568Z,0
2017-09-09T05:08:19.990Z,0
2017-09-09T05:09:21.407Z,0
2017-09-09T05:10:22.827Z,0
2017-09-09T05:11:24.246Z,0
2017-09-09T05:12:25.664Z,0
2017-09-09T05:13:27.082Z,0
2017-09-09T05:14:28.506Z,0
2017-09-09T05:15:29.927Z,0
2017-09-09T05:16:31.344Z,0
2017-09-09T05:17:32.766Z,0
2017-09-09T05:18:34.185Z,0
2017-09-09T05:19:35.599Z,0
2017-09-09T05:20:37.020Z,0
2017-09-09T05:21:38.439Z,0
2017-09-09T05:22:39.857Z,0
2017-09-09T05:23:41.286Z,0
2017-09-09T05:24:42.700Z,0
2017-09-09T05:25:44.120Z,0
2017-09-09T05:26:45.535Z,0
2017-09-09T05:27:46.957Z,0
2017-09-09T05:28:48.383Z,0
2017-09-09T05:29:49.808Z,0
2017-09-09T05:30:51.233Z,0
2017-09-09T05:31:52.658Z,0
2017-09-09T05:32:54.078Z,0
2017-09-09T05:33:55.570Z,0
2017-09-09T05:34:56.987Z,0
2017-09-09T05:35:58.411Z,0
2017-09-09T05:36:59.932Z,0
2017-09-09T05:38:01.350Z,0
2017-09-09T05:39:02.769Z,0
2017-09-09T05:40:04.188Z,0
2017-09-09T05:41:05.610Z,0
2017-09-09T05:42:07.041Z,0
2017-09-09T05:43:08.464Z,0
2017-09-09T05:44:09.877Z,0
2017-09-09T05:45:11.301Z,0
2017-09-09T05:46:12.723Z,0
2017-09-09T05:47:14.149Z,0
2017-09-09T05:48:15.563Z,0
2017-09-09T05:49:16.981Z,0
2017-09-09T05:50:18.411Z,0
2017-09-09T05:51:19.825Z,0
2017-09-09T05:52:21.249Z,0
2017-09-09T05:53:22.667Z,5
2017-09-09T05:54:24.093Z,5
2017-09-09T05:55:25.507Z,5
2017-09-09T05:56:26.923Z,5
2017-09-09T05:57:28.340Z,0
2017-09-09T05:58:29.767Z,0
2017-09-09T05:59:31.188Z,0
2017-09-09T06:00:32.606Z,0
2017-09-09T06:01:34.029Z,0
2017-09-09T06:02:35.452Z,0
2017-09-09T06:03:36.877Z,5
2017-09-09T06:04:38.299Z,5
2017-09-09T06:05:39.715Z,5
2017-09-09T06:06:41.127Z,5
2017-09-09T06:07:42.551Z,5
2017-09-09T06:08:43.967Z,5
2017-09-09T06:09:45.391Z,5
2017-09-09T06:10:46.811Z,5
2017-09-09T06:11:48.231Z,5
2017-09-09T06:12:49.649Z,5
2017-09-09T06:13:51.063Z,5
2017-09-09T06:14:52.478Z,5
2017-09-09T06:15:53.899Z,10
2017-09-09T06:16:55.328Z,5
2017-09-09T06:17:56.740Z,10
2017-09-09T06:18:58.162Z,10
2017-09-09T06:19:59.590Z,10
2017-09-09T06:21:01.007Z,5
2017-09-09T06:22:02.434Z,5
2017-09-09T06:23:03.851Z,5
2017-09-09T06:24:05.282Z,5
2017-09-09T06:25:06.702Z,5
2017-09-09T06:26:08.160Z,5
2017-09-09T06:27:09.596Z,10
2017-09-09T06:28:11.035Z,10
2017-09-09T06:29:12.451Z,10
2017-09-09T06:30:13.870Z,10
2017-09-09T06:31:15.293Z,10
2017-09-09T06:32:16.727Z,10
2017-09-09T06:33:18.141Z,10
2017-09-09T06:34:19.562Z,15
2017-09-09T06:35:20.984Z,10
2017-09-09T06:36:22.404Z,10
2017-09-09T06:37:23.826Z,10
2017-09-09T06:38:25.253Z,10
2017-09-09T06:39:26.673Z,10
2017-09-09T06:40:28.094Z,10
2017-09-09T06:41:29.525Z,10
2017-09-09T06:42:30.943Z,10
2017-09-09T06:43:32.362Z,10
2017-09-09T06:44:33.789Z,15
2017-09-09T06:45:35.205Z,15
2017-09-09T06:46:36.629Z,15
2017-09-09T06:47:38.060Z,10
2017-09-09T06:48:39.480Z,10
2017-09-09T06:49:40.900Z,10
2017-09-09T06:50:42.318Z,15
2017-09-09T06:51:43.751Z,15
2017-09-09T06:52:45.187Z,15
2017-09-09T06:53:46.605Z,20
2017-09-09T06:54:48.042Z,20
2017-09-09T06:55:49.457Z,20
2017-09-09T06:56:50.880Z,25
2017-09-09T06:57:52.310Z,25
2017-09-09T06:58:53.733Z,30
2017-09-09T06:59:55.159Z,35
2017-09-09T07:00:56.574Z,35
2017-09-09T07:01:58.001Z,35
2017-09-09T07:02:59.414Z,35
2017-09-09T07:04:00.844Z,35
2017-09-09T07:05:02.260Z,35
2017-09-09T07:06:03.689Z,35
2017-09-09T07:07:05.108Z,35
2017-09-09T07:08:06.538Z,40
2017-09-09T07:09:07.966Z,40
2017-09-09T07:10:09.388Z,40
2017-09-09T07:11:10.809Z,40
2017-09-09T07:12:12.299Z,40
2017-09-09T07:13:13.722Z,40
2017-09-09T07:14:15.143Z,40
2017-09-09T07:15:16.558Z,40
2017-09-09T07:16:18.029Z,35
2017-09-09T07:17:19.449Z,35
2017-09-09T07:18:20.868Z,40
2017-09-09T07:19:22.291Z,45
2017-09-09T07:20:23.715Z,45
2017-09-09T07:21:25.141Z,40
2017-09-09T07:22:26.566Z,45
2017-09-09T07:23:27.986Z,45
2017-09-09T07:24:29.408Z,45
2017-09-09T07:25:30.832Z,45
2017-09-09T07:26:32.253Z,40
2017-09-09T07:27:33.674Z,40
2017-09-09T07:28:35.091Z,40
2017-09-09T07:29:36.519Z,35
2017-09-09T07:30:37.936Z,35
2017-09-09T07:31:39.358Z,35
2017-09-09T07:32:40.779Z,35
2017-09-09T07:33:42.199Z,40
2017-09-09T07:34:43.625Z,45
2017-09-09T07:35:45.046Z,45
2017-09-09T07:36:46.466Z,50
2017-09-09T07:37:47.889Z,50
2017-09-09T07:38:49.321Z,50
2017-09-09T07:39:50.738Z,55
2017-09-09T07:40:52.160Z,60
2017-09-09T07:41:53.578Z,55
2017-09-09T07:42:55.000Z,50
2017-09-09T07:43:56.425Z,50
2017-09-09T07:44:57.846Z,50
2017-09-09T07:45:59.271Z,50
2017-09-09T07:47:00.700Z,50
2017-09-09T07:48:02.122Z,50
2017-09-09T07:49:03.545Z,50
2017-09-09T07:50:04.967Z,50
2017-09-09T07:51:06.392Z,55
2017-09-09T07:52:07.811Z,60
2017-09-09T07:53:09.229Z,60
2017-09-09T07:54:10.652Z,55
2017-09-09T07:55:12.076Z,50
2017-09-09T07:56:13.493Z,45
2017-09-09T07:57:14.914Z,40
2017-09-09T07:58:16.345Z,35
2017-09-09T07:59:17.762Z,35
2017-09-09T08:00:19.179Z,35
2017-09-09T08:01:20.602Z,40
2017-09-09T08:02:22.024Z,50
2017-09-09T08:03:23.449Z,50
2017-09-09T08:04:24.880Z,55
2017-09-09T08:05:26.308Z,60
2017-09-09T08:06:27.732Z,60
2017-09-09T08:07:29.158Z,55
2017-09-09T08:08:30.583Z,50
2017-09-09T08:09:32.001Z,50
2017-09-09T08:10:33.416Z,45
2017-09-09T08:11:34.841Z,45
2017-09-09T08:12:36.265Z,45
2017-09-09T08:13:37.692Z,35
2017-09-09T08:14:39.115Z,35
2017-09-09T08:15:40.532Z,40
2017-09-09T08:16:41.957Z,35
2017-09-09T08:17:43.386Z,40
2017-09-09T08:18:44.805Z,45
2017-09-09T08:19:46.227Z,45
2017-09-09T08:20:47.643Z,50
2017-09-09T08:21:49.060Z,45
2017-09-09T08:22:50.482Z,30
2017-09-09T08:23:51.913Z,35
2017-09-09T08:24:53.336Z,35
2017-09-09T08:25:54.755Z,30
2017-09-09T08:26:56.178Z,30
2017-09-09T08:27:57.611Z,35
2017-09-09T08:28:59.030Z,40
2017-09-09T08:30:00.447Z,45
2017-09-09T08:31:01.866Z,45
2017-09-09T08:32:03.296Z,50
2017-09-09T08:33:04.717Z,45
2017-09-09T08:34:06.143Z,40
2017-09-09T08:35:07.567Z,40
2017-09-09T08:36:08.988Z,40
2017-09-09T08:37:10.412Z,40
2017-09-09T08:38:11.834Z,40
2017-09-09T08:39:13.258Z,45
2017-09-09T08:40:14.681Z,45
2017-09-09T08:41:16.107Z,55
2017-09-09T08:42:17.534Z,45
2017-09-09T08:43:18.954Z,45
2017-09-09T08:44:20.371Z,65
2017-09-09T08:45:21.783Z,90
2017-09-09T08:46:23.202Z,90
2017-09-09T08:47:24.630Z,90
2017-09-09T08:48:26.052Z,120
2017-09-09T08:49:27.476Z,115
2017-09-09T08:50:28.893Z,100
2017-09-09T08:51:30.315Z,95
2017-09-09T08:52:31.795Z,100
2017-09-09T08:53:33.211Z,90
2017-09-09T08:54:34.638Z,80
2017-09-09T08:55:36.069Z,65
2017-09-09T08:56:37.496Z,50
2017-09-09T08:57:38.912Z,40
2017-09-09T08:58:40.341Z,35
2017-09-09T08:59:41.768Z,45
2017-09-09T09:00:43.188Z,60
2017-09-09T09:01:44.614Z,55
2017-09-09T09:02:46.047Z,65
2017-09-09T09:03:47.466Z,80
2017-09-09T09:04:48.892Z,100
2017-09-09T09:05:50.313Z,110
2017-09-09T09:06:51.738Z,120
2017-09-09T09:07:53.163Z,100
2017-09-09T09:08:54.582Z,90
2017-09-09T09:09:56.008Z,90
2017-09-09T09:10:57.432Z,125
2017-09-09T09:11:58.863Z,135
2017-09-09T09:13:00.288Z,110
2017-09-09T09:14:01.722Z,90
2017-09-09T09:15:03.143Z,85
2017-09-09T09:16:04.581Z,95
2017-09-09T09:17:06.003Z,105
2017-09-09T09:18:07.441Z,100
2017-09-09T09:19:08.862Z,85
2017-09-09T09:20:10.280Z,85
2017-09-09T09:21:11.716Z,70
2017-09-09T09:22:13.136Z,75
2017-09-09T09:23:14.571Z,70
2017-09-09T09:24:15.996Z,50
2017-09-09T09:25:17.419Z,60
2017-09-09T09:26:18.840Z,65
2017-09-09T09:27:20.263Z,65
2017-09-09T09:28:21.694Z,65
2017-09-09T09:29:23.129Z,65
2017-09-09T09:30:24.547Z,60
2017-09-09T09:31:25.975Z,55
2017-09-09T09:32:27.402Z,60
2017-09-09T09:33:28.828Z,70
2017-09-09T09:34:30.261Z,90
2017-09-09T09:35:31.691Z,120
2017-09-09T09:36:33.127Z,125
2017-09-09T09:37:34.546Z,130
2017-09-09T09:38:35.977Z,120
2017-09-09T09:39:37.398Z,130
2017-09-09T09:40:38.817Z,125
2017-09-09T09:41:40.245Z,115
2017-09-09T09:42:41.667Z,130
2017-09-09T09:43:43.102Z,140
2017-09-09T09:44:44.525Z,130
2017-09-09T09:45:45.956Z,135
2017-09-09T09:46:47.384Z,135
2017-09-09T09:47:48.803Z,130
2017-09-09T09:48:50.231Z,130
2017-09-09T09:49:51.732Z,135
2017-09-09T09:50:53.160Z,125
2017-09-09T09:51:54.584Z,145
2017-09-09T09:52:56.035Z,185
2017-09-09T09:53:57.458Z,145
2017-09-09T09:54:58.875Z,130
2017-09-09T09:56:00.312Z,150
2017-09-09T09:57:02.324Z,165
2017-09-09T09:58:03.762Z,150
2017-09-09T09:59:05.179Z,135
2017-09-09T10:00:06.600Z,115
2017-09-09T10:01:08.023Z,70
2017-09-09T10:02:09.459Z,135
2017-09-09T10:03:10.881Z,165
2017-09-09T10:04:12.305Z,135
2017-09-09T10:05:13.736Z,145
2017-09-09T10:06:15.164Z,120
2017-09-09T10:07:16.589Z,150
2017-09-09T10:08:18.020Z,140
2017-09-09T10:09:19.446Z,165
2017-09-09T10:10:20.870Z,125
2017-09-09T10:11:22.287Z,90
2017-09-09T10:12:23.710Z,115
2017-09-09T10:13:25.141Z,120
2017-09-09T10:14:26.560Z,75
2017-09-09T10:15:27.978Z,65
2017-09-09T10:16:29.404Z,80
2017-09-09T10:17:30.833Z,105
2017-09-09T10:18:32.261Z,135
2017-09-09T10:19:33.678Z,160
2017-09-09T10:20:35.109Z,135
2017-09-09T10:21:36.536Z,135
2017-09-09T10:22:37.955Z,115
2017-09-09T10:23:39.380Z,115
2017-09-09T10:24:40.802Z,125
2017-09-09T10:25:42.250Z,110
2017-09-09T10:26:43.763Z,125
2017-09-09T10:27:45.195Z,125
2017-09-09T10:28:46.624Z,135
2017-09-09T10:29:48.044Z,130
2017-09-09T10:30:49.474Z,125
2017-09-09T10:31:50.909Z,120
2017-09-09T10:32:52.336Z,130
2017-09-09T10:33:53.757Z,130
2017-09-09T10:34:55.191Z,135
2017-09-09T10:35:56.622Z,145
2017-09-09T10:36:58.134Z,130
2017-09-09T10:37:59.562Z,140
2017-09-09T10:39:00.984Z,165
2017-09-09T10:40:02.407Z,180
2017-09-09T10:41:03.899Z,210
2017-09-09T10:42:05.333Z,200
2017-09-09T10:43:06.761Z,240
2017-09-09T10:44:08.194Z,225
2017-09-09T10:45:09.629Z,245
2017-09-09T10:46:11.056Z,200
2017-09-09T10:47:12.483Z,195
2017-09-09T10:48:13.922Z,230
2017-09-09T10:49:15.353Z,265
2017-09-09T10:50:16.785Z,250
2017-09-09T10:51:18.216Z,205
2017-09-09T10:52:19.635Z,205
2017-09-09T10:53:21.057Z,190
2017-09-09T10:54:22.487Z,205
2017-09-09T10:55:23.938Z,185
2017-09-09T10:56:25.357Z,175
2017-09-09T10:57:26.788Z,130
2017-09-09T10:58:28.225Z,115
2017-09-09T10:59:29.651Z,85
2017-09-09T11:00:31.085Z,80
2017-09-09T11:01:32.518Z,70
2017-09-09T11:02:33.949Z,70
2017-09-09T11:03:35.383Z,90
2017-09-09T11:04:36.805Z,145
2017-09-09T11:05:38.231Z,180
2017-09-09T11:06:39.662Z,200
2017-09-09T11:07:41.098Z,180
2017-09-09T11:08:42.515Z,185
2017-09-09T11:09:43.946Z,155
2017-09-09T11:10:45.381Z,140
2017-09-09T11:11:46.816Z,125
2017-09-09T11:12:48.235Z,130
2017-09-09T11:13:49.658Z,105
2017-09-09T11:14:51.082Z,95
2017-09-09T11:15:52.508Z,75
2017-09-09T11:16:53.937Z,70
2017-09-09T11:17:55.356Z,60
2017-09-09T11:18:56.780Z,55
2017-09-09T11:19:58.204Z,70
2017-09-09T11:20:59.630Z,105
2017-09-09T11:22:01.086Z,150
2017-09-09T11:23:02.482Z,190
2017-09-09T11:24:03.922Z,240
2017-09-09T11:25:05.358Z,315
2017-09-09T11:26:06.785Z,345
2017-09-09T11:27:08.217Z,325
2017-09-09T11:28:09.646Z,305
2017-09-09T11:29:11.073Z,310
2017-09-09T11:30:12.502Z,290
2017-09-09T11:31:13.930Z,300
2017-09-09T11:32:15.373Z,275
2017-09-09T11:33:16.807Z,215
2017-09-09T11:34:18.254Z,165
2017-09-09T11:35:19.681Z,190
2017-09-09T11:36:21.104Z,165
2017-09-09T11:37:22.535Z,90
2017-09-09T11:38:23.971Z,60
2017-09-09T11:39:25.392Z,60
2017-09-09T11:40:26.820Z,70
2017-09-09T11:41:28.246Z,75
2017-09-09T11:42:29.685Z,80
2017-09-09T11:43:31.105Z,90
2017-09-09T11:44:32.526Z,70
2017-09-09T11:45:33.974Z,90
2017-09-09T11:46:35.400Z,90
2017-09-09T11:47:36.844Z,90
2017-09-09T11:48:38.275Z,85
2017-09-09T11:49:39.719Z,85
2017-09-09T11:50:41.152Z,85
2017-09-09T11:51:42.581Z,95
2017-09-09T11:52:44.070Z,145
2017-09-09T11:53:45.501Z,215
2017-09-09T11:54:46.921Z,250
2017-09-09T11:55:48.358Z,340
2017-09-09T11:56:49.777Z,345
2017-09-09T11:57:51.216Z,335
2017-09-09T11:58:52.644Z,265
2017-09-09T11:59:54.082Z,265
2017-09-09T12:00:55.510Z,280
2017-09-09T12:01:56.943Z,245
2017-09-09T12:02:58.367Z,200
2017-09-09T12:03:59.796Z,225
2017-09-09T12:05:01.218Z,280
2017-09-09T12:06:02.653Z,195
2017-09-09T12:07:04.083Z,185
2017-09-09T12:08:05.511Z,175
2017-09-09T12:09:06.957Z,170
2017-09-09T12:10:08.389Z,165
2017-09-09T12:11:09.815Z,130
2017-09-09T12:12:11.243Z,160
2017-09-09T12:13:12.667Z,220
2017-09-09T12:14:14.095Z,175
2017-09-09T12:15:15.524Z,160
2017-09-09T12:16:16.952Z,195
2017-09-09T12:17:18.381Z,185
2017-09-09T12:18:19.806Z,215
2017-09-09T12:19:21.241Z,255
2017-09-09T12:20:22.676Z,275
2017-09-09T12:21:24.098Z,230
2017-09-09T12:22:25.532Z,295
2017-09-09T12:23:26.968Z,120
2017-09-09T12:24:28.404Z,135
2017-09-09T12:25:29.828Z,165
2017-09-09T12:26:31.259Z,240
2017-09-09T12:27:32.689Z,260
2017-09-09T12:28:34.128Z,215
2017-09-09T12:29:35.573Z,90
2017-09-09T12:30:36.993Z,105
2017-09-09T12:31:38.415Z,115
2017-09-09T12:32:39.846Z,135
2017-09-09T12:33:41.273Z,205
2017-09-09T12:34:42.704Z,220
2017-09-09T12:35:44.146Z,275
2017-09-09T12:36:45.580Z,245
2017-09-09T12:37:46.999Z,160
2017-09-09T12:38:48.429Z,195
2017-09-09T12:39:49.851Z,295
2017-09-09T12:40:51.283Z,230
2017-09-09T12:41:52.707Z,340
2017-09-09T12:42:54.133Z,275
2017-09-09T12:43:55.576Z,225
2017-09-09T12:44:57.000Z,250
2017-09-09T12:45:58.445Z,345
2017-09-09T12:46:59.884Z,290
2017-09-09T12:48:01.310Z,290
2017-09-09T12:49:02.740Z,310
2017-09-09T12:50:04.169Z,350
2017-09-09T12:51:05.606Z,380
2017-09-09T12:52:07.040Z,250
2017-09-09T12:53:08.465Z,235
2017-09-09T12:54:09.905Z,260
2017-09-09T12:55:11.332Z,185
2017-09-09T12:56:12.767Z,225
2017-09-09T12:57:14.198Z,310
2017-09-09T12:58:15.633Z,200
2017-09-09T12:59:17.078Z,245
2017-09-09T13:00:18.508Z,315
2017-09-09T13:01:19.940Z,345
2017-09-09T13:02:21.365Z,235
2017-09-09T13:03:22.789Z,195
2017-09-09T13:04:24.224Z,360
2017-09-09T13:05:25.664Z,275
2017-09-09T13:06:27.096Z,335
2017-09-09T13:07:28.527Z,200
2017-09-09T13:08:29.951Z,290
2017-09-09T13:09:31.386Z,295
2017-09-09T13:10:32.817Z,370
2017-09-09T13:11:34.272Z,195
2017-09-09T13:12:35.711Z,180
2017-09-09T13:13:37.144Z,505
2017-09-09T13:14:38.565Z,535
2017-09-09T13:15:39.988Z,75
2017-09-09T13:16:41.440Z,90
2017-09-09T13:17:42.871Z,120
2017-09-09T13:18:44.308Z,225
2017-09-09T13:19:45.859Z,195
2017-09-09T13:20:47.288Z,3215
2017-09-09T13:21:48.712Z,2545
2017-09-09T13:22:50.190Z,3460
2017-09-09T13:23:51.620Z,100
2017-09-09T13:24:53.041Z,490
2017-09-09T13:25:54.468Z,1135
2017-09-09T13:26:55.896Z,495
2017-09-09T13:27:57.331Z,595
2017-09-09T13:28:58.763Z,1355
2017-09-09T13:30:00.200Z,1545
2017-09-09T13:31:01.634Z,370
2017-09-09T13:32:03.064Z,525
2017-09-09T13:33:04.486Z,205
2017-09-09T13:34:05.913Z,930
2017-09-09T13:35:07.342Z,345
2017-09-09T13:36:08.766Z,355
2017-09-09T13:37:10.191Z,255
2017-09-09T13:38:11.644Z,265
2017-09-09T13:39:13.070Z,2365
2017-09-09T13:40:14.495Z,2450
2017-09-09T13:41:15.920Z,2345
2017-09-09T13:42:17.363Z,795
2017-09-09T13:43:18.796Z,3770
2017-09-09T13:44:20.220Z,2075
2017-09-09T13:45:21.655Z,585
2017-09-09T13:46:23.083Z,1125
2017-09-09T13:47:24.514Z,580
2017-09-09T13:48:25.937Z,1065
2017-09-09T13:49:27.375Z,570
2017-09-09T13:50:28.807Z,555
2017-09-09T13:51:30.243Z,495
2017-09-09T13:52:31.664Z,435
2017-09-09T13:53:33.097Z,325
2017-09-09T13:54:34.536Z,240
2017-09-09T13:55:35.972Z,235
2017-09-09T13:56:37.424Z,270
2017-09-09T13:57:38.852Z,285
2017-09-09T13:58:40.291Z,395
2017-09-09T13:59:41.723Z,250
2017-09-09T14:00:43.156Z,190
2017-09-09T14:01:44.589Z,135
2017-09-09T14:02:46.031Z,160
2017-09-09T14:03:47.463Z,265
2017-09-09T14:04:48.905Z,305
2017-09-09T14:05:50.337Z,265
2017-09-09T14:06:51.762Z,235
2017-09-09T14:07:53.208Z,245
2017-09-09T14:08:54.630Z,205
2017-09-09T14:09:56.074Z,170
2017-09-09T14:10:57.508Z,135
2017-09-09T14:11:58.953Z,100
2017-09-09T14:13:00.384Z,95
2017-09-09T14:14:01.811Z,120
2017-09-09T14:15:03.243Z,130
2017-09-09T14:16:04.676Z,125
2017-09-09T14:17:06.115Z,95
2017-09-09T14:18:07.560Z,75
2017-09-09T14:19:08.986Z,45
2017-09-09T14:20:10.434Z,25
2017-09-09T14:21:11.860Z,15
2017-09-09T14:22:13.280Z,10
2017-09-09T14:23:14.705Z,10
2017-09-09T14:24:16.132Z,15
2017-09-09T14:25:17.563Z,25
2017-09-09T14:26:18.989Z,30
2017-09-09T14:27:20.417Z,25
2017-09-09T14:28:21.841Z,20
2017-09-09T14:29:23.289Z,20
2017-09-09T14:30:24.711Z,15
2017-09-09T14:31:26.139Z,20
2017-09-09T14:32:27.565Z,20
2017-09-09T14:33:28.995Z,25
2017-09-09T14:34:30.440Z,25
2017-09-09T14:35:31.875Z,25
2017-09-09T14:36:33.303Z,30
2017-09-09T14:37:34.719Z,35
2017-09-09T14:38:36.143Z,40
2017-09-09T14:39:37.561Z,40